Time;durP1;ratioP1;P1;durP2;ratioP2;P2;SDS_P1;SDS_P2;PMS_P1;PMS_P2;Temp;Humidity;BMP_temperature;BMP_pressure;BME280_temperature;BME280_humidity;BME280_pressure;Samples;Min_cycle;Max_cycle;Signal;HPM_P1;HPM_P2
2023/04/13 00:00:10;;;;;;;3.17;1.15;;;;;;;;;;5042071;28;20292;-68
2023/04/13 00:02:37;;;;;;;1.63;1.00;;;;;;;;;;5039002;28;20243;-69
2023/04/13 00:05:08;;;;;;;1.92;1.08;;;;;;;;;;5045950;28;20186;-68
2023/04/13 00:07:37;;;;;;;2.83;1.35;;;;;;;;;;5047733;28;20193;-69
2023/04/13 00:10:07;;;;;;;1.17;0.98;;;;;;;;;;5046735;28;20213;-68
2023/04/13 00:12:33;;;;;;;2.00;1.15;;;;;;;;;;5044877;28;20679;-68
2023/04/13 00:14:59;;;;;;;3.17;1.00;;;;;;;;;;5039785;28;20316;-67
2023/04/13 00:17:25;;;;;;;1.58;0.95;;;;;;;;;;5037703;28;20272;-67
2023/04/13 00:19:52;;;;;;;3.60;1.23;;;;;;;;;;5045097;28;20182;-67
2023/04/13 00:22:18;;;;;;;1.10;0.80;;;;;;;;;;5038151;28;20186;-68
2023/04/13 00:24:44;;;;;;;4.18;1.00;;;;;;;;;;5037397;28;20288;-68
2023/04/13 00:27:10;;;;;;;4.80;1.10;;;;;;;;;;5045914;28;20372;-69
2023/04/13 00:29:36;;;;;;;3.63;1.13;;;;;;;;;;5041020;28;20628;-68
2023/04/13 00:32:03;;;;;;;4.93;1.25;;;;;;;;;;5041311;28;20198;-68
2023/04/13 00:34:28;;;;;;;4.35;1.20;;;;;;;;;;5039791;28;20559;-69
2023/04/13 00:36:53;;;;;;;1.77;1.00;;;;;;;;;;5044842;28;20185;-69
2023/04/13 00:39:22;;;;;;;2.95;1.20;;;;;;;;;;5035251;28;20748;-69
2023/04/13 00:41:50;;;;;;;4.87;0.90;;;;;;;;;;5040531;28;20647;-70
2023/04/13 00:44:18;;;;;;;1.58;0.95;;;;;;;;;;5037756;28;20182;-69
2023/04/13 00:46:46;;;;;;;2.60;0.90;;;;;;;;;;5032216;28;20197;-70
2023/04/13 00:49:16;;;;;;;6.72;1.02;;;;;;;;;;5039296;28;20253;-68
2023/04/13 00:51:43;;;;;;;2.95;0.93;;;;;;;;;;5039611;28;20186;-69
2023/04/13 00:54:15;;;;;;;2.78;0.70;;;;;;;;;;5044233;28;20645;-70
2023/04/13 00:56:41;;;;;;;7.20;1.10;;;;;;;;;;5041919;28;20217;-70
2023/04/13 00:59:09;;;;;;;2.90;0.80;;;;;;;;;;5031297;28;20193;-69
2023/04/13 01:01:45;;;;;;;1.65;0.60;;;;;;;;;;5039963;28;20284;-70
2023/04/13 01:04:17;;;;;;;4.22;1.15;;;;;;;;;;5045694;28;20192;-70
2023/04/13 01:07:05;;;;;;;3.50;0.60;;;;;;;;;;5050617;28;20212;-70
2023/04/13 01:09:40;;;;;;;2.55;0.75;;;;;;;;;;5044903;28;20826;-70
2023/04/13 01:12:22;;;;;;;4.00;0.77;;;;;;;;;;5035303;28;20203;-71
2023/04/13 01:14:58;;;;;;;4.13;0.97;;;;;;;;;;5031310;28;20717;-70
2023/04/13 01:17:28;;;;;;;3.10;0.60;;;;;;;;;;5048799;28;20191;-71
2023/04/13 01:20:00;;;;;;;3.17;0.95;;;;;;;;;;5042299;28;20532;-69
2023/04/13 01:22:30;;;;;;;2.17;0.60;;;;;;;;;;5047838;28;20208;-68
2023/04/13 01:25:10;;;;;;;2.15;0.50;;;;;;;;;;5034671;28;20193;-69
2023/04/13 01:27:54;;;;;;;4.10;1.63;;;;;;;;;;5044840;28;20276;-70
2023/04/13 01:30:21;;;;;;;2.05;1.35;;;;;;;;;;5038020;28;20213;-71
2023/04/13 01:32:52;;;;;;;2.95;0.70;;;;;;;;;;5047912;28;20258;-69
2023/04/13 01:35:21;;;;;;;5.00;0.70;;;;;;;;;;5037920;28;20244;-70
2023/04/13 01:37:49;;;;;;;5.30;0.70;;;;;;;;;;5038050;28;20194;-70
2023/04/13 01:40:14;;;;;;;2.60;0.70;;;;;;;;;;5036953;28;20186;-71
2023/04/13 01:42:41;;;;;;;3.28;0.65;;;;;;;;;;5041055;28;20308;-70
2023/04/13 01:45:34;;;;;;;1.58;0.52;;;;;;;;;;5036271;28;20669;-70
2023/04/13 01:48:08;;;;;;;3.03;0.70;;;;;;;;;;5033444;28;20231;-69
2023/04/13 01:50:39;;;;;;;0.90;0.53;;;;;;;;;;5040669;28;20277;-70
2023/04/13 01:53:10;;;;;;;2.97;0.90;;;;;;;;;;5036956;28;20203;-68
2023/04/13 01:55:38;;;;;;;2.53;0.70;;;;;;;;;;5048095;28;20680;-69
2023/04/13 01:58:05;;;;;;;3.33;0.93;;;;;;;;;;5042879;28;20190;-70
2023/04/13 02:00:35;;;;;;;1.40;0.70;;;;;;;;;;5035444;28;20274;-70
2023/04/13 02:03:05;;;;;;;4.23;0.80;;;;;;;;;;5045141;28;20189;-71
2023/04/13 02:05:31;;;;;;;4.47;0.90;;;;;;;;;;5045360;28;20264;-70
2023/04/13 02:07:56;;;;;;;1.70;0.60;;;;;;;;;;5047884;28;20239;-70
2023/04/13 02:10:22;;;;;;;8.38;1.02;;;;;;;;;;5044837;28;20206;-70
2023/04/13 02:12:48;;;;;;;3.00;0.80;;;;;;;;;;5047246;28;20198;-70
2023/04/13 02:15:14;;;;;;;3.07;0.80;;;;;;;;;;5046579;28;20217;-71
2023/04/13 02:17:40;;;;;;;3.87;0.77;;;;;;;;;;5044763;28;20225;-71
2023/04/13 02:20:12;;;;;;;2.23;0.80;;;;;;;;;;5048742;28;20190;-71
2023/04/13 02:22:40;;;;;;;2.27;0.90;;;;;;;;;;5047169;28;20724;-72
2023/04/13 02:25:14;;;;;;;3.43;0.90;;;;;;;;;;5043906;28;20247;-70
2023/04/13 02:27:40;;;;;;;3.00;0.90;;;;;;;;;;5045920;28;22307;-71
2023/04/13 02:30:08;;;;;;;4.83;0.80;;;;;;;;;;5036598;28;20329;-70
2023/04/13 02:32:39;;;;;;;4.23;0.87;;;;;;;;;;5048694;28;20331;-71
2023/04/13 02:35:08;;;;;;;2.45;0.80;;;;;;;;;;5037847;28;20197;-72
2023/04/13 02:37:38;;;;;;;5.53;0.90;;;;;;;;;;5039086;28;20327;-72
2023/04/13 02:40:07;;;;;;;2.60;0.82;;;;;;;;;;5043056;28;20205;-72
2023/04/13 02:42:32;;;;;;;4.07;0.90;;;;;;;;;;5049296;28;20513;-72
2023/04/13 02:44:58;;;;;;;4.53;0.97;;;;;;;;;;5047248;28;20189;-72
2023/04/13 02:47:23;;;;;;;4.53;0.80;;;;;;;;;;5040744;28;20212;-72
2023/04/13 02:49:48;;;;;;;6.10;1.00;;;;;;;;;;5034363;28;20661;-73
2023/04/13 02:52:14;;;;;;;1.47;0.80;;;;;;;;;;5048897;28;20197;-72
2023/04/13 02:54:40;;;;;;;3.47;1.07;;;;;;;;;;5042330;28;20280;-72
2023/04/13 02:57:05;;;;;;;3.10;1.20;;;;;;;;;;5047075;28;20193;-70
2023/04/13 02:59:30;;;;;;;7.40;1.27;;;;;;;;;;5034071;28;20422;-71
2023/04/13 03:01:57;;;;;;;3.60;1.00;;;;;;;;;;5039105;28;20259;-70
2023/04/13 03:04:23;;;;;;;4.57;1.40;;;;;;;;;;5042183;28;20193;-69
2023/04/13 03:06:49;;;;;;;3.30;1.00;;;;;;;;;;5037464;28;20205;-70
2023/04/13 03:09:15;;;;;;;3.57;1.20;;;;;;;;;;5040847;28;20205;-70
2023/04/13 03:11:40;;;;;;;3.37;1.20;;;;;;;;;;5041608;28;20213;-70
2023/04/13 03:14:06;;;;;;;6.17;1.87;;;;;;;;;;5035165;28;20544;-69
2023/04/13 03:16:31;;;;;;;3.20;1.17;;;;;;;;;;5042134;28;20564;-70
2023/04/13 03:18:57;;;;;;;6.40;1.00;;;;;;;;;;5033416;28;20202;-70
2023/04/13 03:21:23;;;;;;;2.77;0.90;;;;;;;;;;5039445;28;20529;-70
2023/04/13 03:23:48;;;;;;;6.07;1.10;;;;;;;;;;5044842;28;20484;-71
2023/04/13 03:26:13;;;;;;;4.70;1.87;;;;;;;;;;5043102;28;20194;-71
2023/04/13 03:28:39;;;;;;;6.90;1.10;;;;;;;;;;5045130;28;20530;-70
2023/04/13 03:31:05;;;;;;;4.25;1.02;;;;;;;;;;5033960;28;20218;-70
2023/04/13 03:33:30;;;;;;;4.20;1.10;;;;;;;;;;5046128;28;20563;-72
2023/04/13 03:35:56;;;;;;;4.82;1.08;;;;;;;;;;5032586;28;20198;-73
2023/04/13 03:38:21;;;;;;;5.65;0.98;;;;;;;;;;5046009;28;20231;-73
2023/04/13 03:40:47;;;;;;;5.00;1.20;;;;;;;;;;5041402;28;20678;-71
2023/04/13 03:43:12;;;;;;;5.40;1.20;;;;;;;;;;5035676;28;20240;-72
2023/04/13 03:45:37;;;;;;;3.28;1.20;;;;;;;;;;5042166;28;20284;-70
2023/04/13 03:48:04;;;;;;;4.82;1.10;;;;;;;;;;5041677;28;21270;-71
2023/04/13 03:50:30;;;;;;;5.55;1.15;;;;;;;;;;5043627;28;20328;-70
2023/04/13 03:52:56;;;;;;;3.22;1.05;;;;;;;;;;5043662;28;20337;-71
2023/04/13 03:55:22;;;;;;;3.88;1.20;;;;;;;;;;5042940;28;20289;-71
2023/04/13 03:57:47;;;;;;;3.17;1.50;;;;;;;;;;5042576;28;20916;-71
2023/04/13 04:00:14;;;;;;;1.88;1.10;;;;;;;;;;5040782;28;20316;-70
2023/04/13 04:02:40;;;;;;;3.93;1.30;;;;;;;;;;5037893;28;20224;-71
2023/04/13 04:05:06;;;;;;;3.60;1.35;;;;;;;;;;5040306;28;20654;-70
2023/04/13 04:07:31;;;;;;;4.07;1.92;;;;;;;;;;5036088;28;20384;-71
2023/04/13 04:09:57;;;;;;;4.43;1.45;;;;;;;;;;5044935;28;20927;-69
2023/04/13 04:12:22;;;;;;;3.95;1.30;;;;;;;;;;5038170;28;20216;-70
2023/04/13 04:14:47;;;;;;;3.70;1.30;;;;;;;;;;5033060;28;20197;-69
2023/04/13 04:17:13;;;;;;;6.05;1.70;;;;;;;;;;5037094;28;20609;-70
2023/04/13 04:19:38;;;;;;;1.55;1.45;;;;;;;;;;5034467;28;20266;-69
2023/04/13 04:22:05;;;;;;;4.22;1.65;;;;;;;;;;5030016;28;20182;-68
2023/04/13 04:24:32;;;;;;;7.75;2.20;;;;;;;;;;5035722;28;20255;-69
2023/04/13 04:26:58;;;;;;;3.47;2.10;;;;;;;;;;5038820;28;20508;-69
2023/04/13 04:29:33;;;;;;;3.97;2.00;;;;;;;;;;5029813;28;20253;-70
2023/04/13 04:32:03;;;;;;;3.40;2.28;;;;;;;;;;5038171;28;20544;-69
2023/04/13 04:34:28;;;;;;;6.28;2.45;;;;;;;;;;5036413;28;20297;-69
2023/04/13 04:36:54;;;;;;;5.70;2.80;;;;;;;;;;5037357;28;20268;-69
2023/04/13 04:39:25;;;;;;;5.07;2.53;;;;;;;;;;5045417;28;20581;-69
2023/04/13 04:41:53;;;;;;;8.03;2.70;;;;;;;;;;5040551;28;20275;-70
2023/04/13 04:44:19;;;;;;;8.57;3.30;;;;;;;;;;5035817;28;20186;-71
2023/04/13 04:46:47;;;;;;;5.67;3.50;;;;;;;;;;5034647;28;20236;-69
2023/04/13 04:49:13;;;;;;;5.77;2.77;;;;;;;;;;5045852;28;20193;-71
2023/04/13 04:51:38;;;;;;;4.53;3.10;;;;;;;;;;5036704;28;20292;-70
2023/04/13 04:54:04;;;;;;;7.10;2.90;;;;;;;;;;5033105;28;20194;-70
2023/04/13 04:56:30;;;;;;;7.90;3.07;;;;;;;;;;5039759;28;20186;-70
2023/04/13 04:58:56;;;;;;;8.40;2.80;;;;;;;;;;5045080;28;20193;-70
2023/04/13 05:01:25;;;;;;;7.13;2.90;;;;;;;;;;5041671;28;20773;-70
2023/04/13 05:03:51;;;;;;;6.37;2.87;;;;;;;;;;5042311;28;20211;-69
2023/04/13 05:06:16;;;;;;;9.87;2.90;;;;;;;;;;5044959;28;20649;-69
2023/04/13 05:08:43;;;;;;;8.27;3.60;;;;;;;;;;5043581;28;20692;-70
2023/04/13 05:11:09;;;;;;;6.60;3.10;;;;;;;;;;5038952;28;20300;-70
2023/04/13 05:13:34;;;;;;;5.37;3.07;;;;;;;;;;5035451;28;20285;-69
2023/04/13 05:16:00;;;;;;;4.87;3.10;;;;;;;;;;5040787;28;20193;-70
2023/04/13 05:18:26;;;;;;;9.50;3.47;;;;;;;;;;5036160;28;20645;-69
2023/04/13 05:20:51;;;;;;;6.97;2.70;;;;;;;;;;5029092;28;20684;-70
2023/04/13 05:23:16;;;;;;;5.67;2.90;;;;;;;;;;5038013;28;20552;-71
2023/04/13 05:25:42;;;;;;;5.57;2.73;;;;;;;;;;5039854;28;20213;-70
2023/04/13 05:28:07;;;;;;;7.57;2.80;;;;;;;;;;5030378;28;20316;-69
2023/04/13 05:30:34;;;;;;;12.27;4.13;;;;;;;;;;5025458;28;20647;-69
2023/04/13 05:33:04;;;;;;;6.30;2.60;;;;;;;;;;5034749;28;20459;-68
2023/04/13 05:35:29;;;;;;;6.03;2.67;;;;;;;;;;5030123;28;20204;-69
2023/04/13 05:37:55;;;;;;;10.75;3.28;;;;;;;;;;5034033;28;20190;-69
2023/04/13 05:40:21;;;;;;;5.97;2.35;;;;;;;;;;5035970;28;20308;-68
2023/04/13 05:42:46;;;;;;;5.10;2.63;;;;;;;;;;5039286;28;20194;-69
2023/04/13 05:45:15;;;;;;;6.75;2.40;;;;;;;;;;5037277;28;20818;-68
2023/04/13 05:47:41;;;;;;;5.05;2.72;;;;;;;;;;5041551;28;20205;-69
2023/04/13 05:50:07;;;;;;;7.10;2.63;;;;;;;;;;5045525;28;20205;-69
2023/04/13 05:52:32;;;;;;;8.85;2.22;;;;;;;;;;5038341;28;20190;-67
2023/04/13 05:54:58;;;;;;;5.10;2.55;;;;;;;;;;5043938;28;20212;-68
2023/04/13 05:57:23;;;;;;;6.85;2.30;;;;;;;;;;5040822;28;20679;-68
2023/04/13 05:59:50;;;;;;;4.03;2.08;;;;;;;;;;5043283;28;20193;-68
2023/04/13 06:02:16;;;;;;;6.43;2.67;;;;;;;;;;5045231;28;20181;-68
2023/04/13 06:04:42;;;;;;;4.95;2.40;;;;;;;;;;5038172;28;20189;-68
2023/04/13 06:07:07;;;;;;;10.15;2.60;;;;;;;;;;5033368;28;20192;-68
2023/04/13 06:09:32;;;;;;;5.93;2.50;;;;;;;;;;5033619;28;20189;-67
2023/04/13 06:11:58;;;;;;;5.65;2.63;;;;;;;;;;5036327;28;20192;-68
2023/04/13 06:14:24;;;;;;;6.03;2.30;;;;;;;;;;5031623;28;20190;-68
2023/04/13 06:16:51;;;;;;;6.97;2.85;;;;;;;;;;5040427;28;20186;-67
2023/04/13 06:19:16;;;;;;;6.57;2.70;;;;;;;;;;5038037;28;20190;-68
2023/04/13 06:21:41;;;;;;;6.53;2.70;;;;;;;;;;5042625;28;20708;-67
2023/04/13 06:24:08;;;;;;;7.10;2.85;;;;;;;;;;5043474;28;20207;-67
2023/04/13 06:26:33;;;;;;;7.30;3.05;;;;;;;;;;5039936;28;20198;-67
2023/04/13 06:29:00;;;;;;;5.75;2.50;;;;;;;;;;5040416;28;20221;-69
2023/04/13 06:31:26;;;;;;;6.65;3.28;;;;;;;;;;5043809;28;20205;-67
2023/04/13 06:33:52;;;;;;;7.85;3.30;;;;;;;;;;5041006;28;20178;-67
2023/04/13 06:36:18;;;;;;;7.35;3.13;;;;;;;;;;5034179;28;20272;-68
2023/04/13 06:38:43;;;;;;;8.10;3.55;;;;;;;;;;5043948;28;20288;-67
2023/04/13 06:41:08;;;;;;;7.05;3.80;;;;;;;;;;5038464;28;20208;-67
2023/04/13 06:43:34;;;;;;;10.70;3.72;;;;;;;;;;5034678;28;20225;-67
2023/04/13 06:46:01;;;;;;;8.88;3.20;;;;;;;;;;5037100;28;20198;-67
2023/04/13 06:48:26;;;;;;;7.93;3.25;;;;;;;;;;5042040;28;20519;-69
2023/04/13 06:50:54;;;;;;;7.25;3.42;;;;;;;;;;5037030;28;20225;-69
2023/04/13 06:53:20;;;;;;;8.38;3.85;;;;;;;;;;5037298;28;20393;-69
2023/04/13 06:55:45;;;;;;;9.45;3.67;;;;;;;;;;5040703;28;20193;-67
2023/04/13 06:58:10;;;;;;;7.82;4.30;;;;;;;;;;5033063;28;20185;-66
2023/04/13 07:00:36;;;;;;;9.48;4.20;;;;;;;;;;5045530;28;20201;-67
2023/04/13 07:03:02;;;;;;;11.68;4.35;;;;;;;;;;5037970;28;20617;-68
2023/04/13 07:05:28;;;;;;;8.32;4.32;;;;;;;;;;5044428;28;20663;-67
2023/04/13 07:07:53;;;;;;;8.35;3.83;;;;;;;;;;5040266;28;20296;-67
2023/04/13 07:10:19;;;;;;;8.88;3.90;;;;;;;;;;5043378;28;20212;-67
2023/04/13 07:12:44;;;;;;;10.50;4.20;;;;;;;;;;5044765;28;20190;-67
2023/04/13 07:15:10;;;;;;;8.68;3.97;;;;;;;;;;5041655;28;20545;-68
2023/04/13 07:17:35;;;;;;;10.73;4.20;;;;;;;;;;5041455;28;20185;-68
2023/04/13 07:20:01;;;;;;;9.25;4.00;;;;;;;;;;5038103;28;20284;-67
2023/04/13 07:22:30;;;;;;;8.15;4.00;;;;;;;;;;5030108;28;20221;-67
2023/04/13 07:24:56;;;;;;;7.45;3.15;;;;;;;;;;5045579;28;20256;-67
2023/04/13 07:27:21;;;;;;;9.60;4.05;;;;;;;;;;5031432;28;20568;-68
2023/04/13 07:29:51;;;;;;;7.63;3.60;;;;;;;;;;5039207;28;20241;-69
2023/04/13 07:32:16;;;;;;;7.90;3.30;;;;;;;;;;5038797;28;20277;-69
2023/04/13 07:34:42;;;;;;;10.90;3.50;;;;;;;;;;5033107;28;20757;-68
2023/04/13 07:37:07;;;;;;;8.25;3.85;;;;;;;;;;5028881;28;20271;-68
2023/04/13 07:39:33;;;;;;;8.50;3.55;;;;;;;;;;5044067;28;20693;-69
2023/04/13 07:41:58;;;;;;;11.40;3.97;;;;;;;;;;5035079;28;20205;-68
2023/04/13 07:44:24;;;;;;;9.90;4.45;;;;;;;;;;5035150;28;20206;-68
2023/04/13 07:46:50;;;;;;;11.93;5.05;;;;;;;;;;5026084;28;20189;-68
2023/04/13 07:49:15;;;;;;;11.73;5.05;;;;;;;;;;5029136;28;20205;-68
2023/04/13 07:51:41;;;;;;;9.88;4.72;;;;;;;;;;5036221;28;20348;-68
2023/04/13 07:54:06;;;;;;;10.05;5.50;;;;;;;;;;5033864;28;20186;-68
2023/04/13 07:56:32;;;;;;;11.10;4.88;;;;;;;;;;5037026;28;20201;-68
2023/04/13 07:58:57;;;;;;;8.20;4.68;;;;;;;;;;5030920;28;20182;-68
2023/04/13 08:01:23;;;;;;;7.85;4.32;;;;;;;;;;5028227;28;20296;-69
2023/04/13 08:03:48;;;;;;;12.85;4.63;;;;;;;;;;5036903;28;20198;-69
2023/04/13 08:06:14;;;;;;;6.68;4.40;;;;;;;;;;5036965;28;20190;-69
2023/04/13 08:08:39;;;;;;;6.78;4.25;;;;;;;;;;5037264;28;20208;-68
2023/04/13 08:11:06;;;;;;;7.13;4.53;;;;;;;;;;5030138;28;20210;-68
2023/04/13 08:13:31;;;;;;;6.82;4.10;;;;;;;;;;5047472;28;20323;-67
2023/04/13 08:15:59;;;;;;;8.52;4.07;;;;;;;;;;5031346;28;20290;-67
2023/04/13 08:18:28;;;;;;;6.03;3.22;;;;;;;;;;5042835;28;20204;-68
2023/04/13 08:20:54;;;;;;;3.08;2.42;;;;;;;;;;5033018;28;20193;-67
2023/04/13 08:23:20;;;;;;;3.10;1.98;;;;;;;;;;5037892;28;20194;-67
2023/04/13 08:25:46;;;;;;;6.05;2.10;;;;;;;;;;5038807;28;20276;-67
2023/04/13 08:28:12;;;;;;;4.22;1.67;;;;;;;;;;5034635;28;20545;-67
2023/04/13 08:30:37;;;;;;;2.80;1.63;;;;;;;;;;5033377;28;20211;-67
2023/04/13 08:33:03;;;;;;;3.13;1.70;;;;;;;;;;5046998;28;20181;-67
2023/04/13 08:35:28;;;;;;;2.65;1.40;;;;;;;;;;5042401;28;20196;-67
2023/04/13 08:37:53;;;;;;;2.45;1.30;;;;;;;;;;5038926;28;20608;-68
2023/04/13 08:40:20;;;;;;;3.42;1.70;;;;;;;;;;5042273;28;20372;-68
2023/04/13 08:42:46;;;;;;;3.13;1.70;;;;;;;;;;5041550;28;20177;-68
2023/04/13 08:45:12;;;;;;;2.80;1.75;;;;;;;;;;5034367;28;20455;-68
2023/04/13 08:47:39;;;;;;;4.10;2.10;;;;;;;;;;5029551;28;20212;-69
2023/04/13 08:50:06;;;;;;;3.50;1.75;;;;;;;;;;5035008;28;20213;-68
2023/04/13 08:52:33;;;;;;;3.10;2.13;;;;;;;;;;5030723;28;20182;-68
2023/04/13 08:55:01;;;;;;;2.67;2.00;;;;;;;;;;5035987;28;20197;-68
2023/04/13 08:57:28;;;;;;;2.63;2.10;;;;;;;;;;5041388;28;20201;-67
2023/04/13 08:59:56;;;;;;;2.42;1.90;;;;;;;;;;5033867;28;20186;-67
2023/04/13 09:02:24;;;;;;;5.00;1.83;;;;;;;;;;5031154;28;20192;-67
2023/04/13 09:04:53;;;;;;;2.17;1.50;;;;;;;;;;5040688;28;20264;-67
2023/04/13 09:07:25;;;;;;;3.80;1.63;;;;;;;;;;5039987;28;20211;-67
2023/04/13 09:09:56;;;;;;;2.42;1.65;;;;;;;;;;5044618;28;20580;-67
2023/04/13 09:12:22;;;;;;;3.30;2.20;;;;;;;;;;5043628;28;20782;-67
2023/04/13 09:14:48;;;;;;;2.85;1.85;;;;;;;;;;5041976;28;20194;-67
2023/04/13 09:17:25;;;;;;;6.70;2.00;;;;;;;;;;5034537;28;20190;-67
2023/04/13 09:19:52;;;;;;;4.05;2.08;;;;;;;;;;5044905;28;20284;-67
2023/04/13 09:22:17;;;;;;;4.32;1.55;;;;;;;;;;5047787;28;20253;-68
2023/04/13 09:24:43;;;;;;;5.63;1.50;;;;;;;;;;5042321;28;20669;-67
2023/04/13 09:27:22;;;;;;;5.45;1.80;;;;;;;;;;5042377;28;20206;-68
2023/04/13 09:29:52;;;;;;;6.30;1.58;;;;;;;;;;5034686;28;20720;-69
2023/04/13 09:32:22;;;;;;;4.40;1.20;;;;;;;;;;5034856;28;20194;-68
2023/04/13 09:35:16;;;;;;;4.65;1.33;;;;;;;;;;5048389;28;20243;-68
2023/04/13 09:37:43;;;;;;;4.03;1.20;;;;;;;;;;5033039;28;20568;-68
2023/04/13 09:40:13;;;;;;;2.75;0.98;;;;;;;;;;5039043;28;20214;-69
2023/04/13 09:42:41;;;;;;;6.70;1.90;;;;;;;;;;5047242;28;20652;-69
2023/04/13 09:45:08;;;;;;;4.68;1.13;;;;;;;;;;5041427;28;20190;-68
2023/04/13 09:47:39;;;;;;;7.13;1.38;;;;;;;;;;5049455;28;20197;-68
2023/04/13 09:50:22;;;;;;;8.00;1.73;;;;;;;;;;5042914;28;20296;-68
2023/04/13 09:52:58;;;;;;;8.93;1.73;;;;;;;;;;5033201;28;20201;-67
2023/04/13 09:55:23;;;;;;;8.48;1.38;;;;;;;;;;5039859;28;20652;-67
2023/04/13 09:57:49;;;;;;;7.70;1.70;;;;;;;;;;5029189;28;20194;-67
2023/04/13 10:00:22;;;;;;;6.22;1.48;;;;;;;;;;5039672;28;20211;-67
2023/04/13 10:02:49;;;;;;;5.10;1.42;;;;;;;;;;5046545;28;20238;-67
2023/04/13 10:05:16;;;;;;;3.45;1.10;;;;;;;;;;5045706;28;20485;-67
2023/04/13 10:07:43;;;;;;;6.55;1.38;;;;;;;;;;5042908;28;20277;-68
2023/04/13 10:10:09;;;;;;;10.55;1.60;;;;;;;;;;5040666;28;20209;-67
2023/04/13 10:12:37;;;;;;;7.93;1.52;;;;;;;;;;5044111;28;20198;-67
2023/04/13 10:15:28;;;;;;;10.27;1.75;;;;;;;;;;5040646;28;20190;-67
2023/04/13 10:18:13;;;;;;;4.63;1.30;;;;;;;;;;5042924;28;20185;-69
2023/04/13 10:20:39;;;;;;;8.05;1.52;;;;;;;;;;5045890;28;20243;-67
2023/04/13 10:23:05;;;;;;;7.90;1.70;;;;;;;;;;5043085;28;20283;-67
2023/04/13 10:25:31;;;;;;;6.80;1.80;;;;;;;;;;5044249;28;20280;-67
2023/04/13 10:27:57;;;;;;;9.60;2.15;;;;;;;;;;5031065;28;20262;-67
2023/04/13 10:30:23;;;;;;;7.72;1.50;;;;;;;;;;5032186;28;20230;-67
2023/04/13 10:33:08;;;;;;;8.00;1.58;;;;;;;;;;5048104;28;20634;-67
2023/04/13 10:35:37;;;;;;;7.63;1.88;;;;;;;;;;5042185;28;20196;-67
2023/04/13 10:38:03;;;;;;;9.82;1.77;;;;;;;;;;5032447;28;20556;-67
2023/04/13 10:40:28;;;;;;;11.15;1.88;;;;;;;;;;5039259;28;20186;-67
2023/04/13 10:42:54;;;;;;;10.70;1.45;;;;;;;;;;5045692;28;20190;-67
2023/04/13 10:45:25;;;;;;;11.40;1.88;;;;;;;;;;5049388;28;20247;-68
2023/04/13 10:47:55;;;;;;;11.77;2.03;;;;;;;;;;5047313;28;20193;-67
2023/04/13 10:50:26;;;;;;;6.75;1.98;;;;;;;;;;5046028;28;20213;-68
2023/04/13 10:53:06;;;;;;;10.50;1.90;;;;;;;;;;5042908;28;20276;-67
2023/04/13 10:55:33;;;;;;;9.25;3.03;;;;;;;;;;5048169;28;20229;-67
2023/04/13 10:58:00;;;;;;;7.97;1.83;;;;;;;;;;5048608;28;20185;-68
2023/04/13 11:00:28;;;;;;;7.90;1.58;;;;;;;;;;5046670;28;20691;-69
2023/04/13 11:02:56;;;;;;;7.00;1.48;;;;;;;;;;5035436;28;20239;-68
2023/04/13 11:05:22;;;;;;;7.78;1.40;;;;;;;;;;5041218;28;20187;-67
2023/04/13 11:07:49;;;;;;;5.43;1.50;;;;;;;;;;5040190;28;20194;-67
2023/04/13 11:10:22;;;;;;;8.52;1.80;;;;;;;;;;5047968;28;20296;-66
2023/04/13 11:12:50;;;;;;;12.43;1.85;;;;;;;;;;5043611;28;20240;-67
2023/04/13 11:15:22;;;;;;;4.38;1.70;;;;;;;;;;5040799;28;20281;-67
2023/04/13 11:17:58;;;;;;;8.13;1.77;;;;;;;;;;5034953;28;20200;-67
2023/04/13 11:20:38;;;;;;;10.27;2.40;;;;;;;;;;5038676;28;20198;-67
2023/04/13 11:23:06;;;;;;;7.47;1.60;;;;;;;;;;5042136;28;20197;-66
2023/04/13 11:25:32;;;;;;;6.55;1.27;;;;;;;;;;5048446;28;20189;-67
2023/04/13 11:27:59;;;;;;;7.78;1.40;;;;;;;;;;5041808;28;20198;-67
2023/04/13 11:30:25;;;;;;;10.07;1.70;;;;;;;;;;5047480;28;20259;-68
2023/04/13 11:32:52;;;;;;;10.50;1.83;;;;;;;;;;5049140;28;20189;-67
2023/04/13 11:35:18;;;;;;;4.85;1.42;;;;;;;;;;5048670;28;20189;-67
2023/04/13 11:37:51;;;;;;;14.25;1.92;;;;;;;;;;5048339;28;20216;-67
2023/04/13 11:40:26;;;;;;;6.22;1.40;;;;;;;;;;5040755;28;20590;-67
2023/04/13 11:42:53;;;;;;;7.80;1.60;;;;;;;;;;5047931;28;20191;-67
2023/04/13 11:45:21;;;;;;;7.68;1.92;;;;;;;;;;5036062;28;20225;-67
2023/04/13 11:47:49;;;;;;;10.77;2.03;;;;;;;;;;5039845;28;20545;-67
2023/04/13 11:50:16;;;;;;;7.07;1.50;;;;;;;;;;5045561;28;20209;-67
2023/04/13 11:52:43;;;;;;;8.02;1.48;;;;;;;;;;5042206;28;20177;-67
2023/04/13 11:55:08;;;;;;;6.28;1.40;;;;;;;;;;5042823;28;20189;-68
2023/04/13 11:57:35;;;;;;;8.80;1.50;;;;;;;;;;5033074;28;20190;-67
2023/04/13 12:00:08;;;;;;;6.57;1.25;;;;;;;;;;5030941;28;20197;-68
2023/04/13 12:02:33;;;;;;;10.05;1.67;;;;;;;;;;5040745;28;20284;-67
2023/04/13 12:04:59;;;;;;;7.90;1.40;;;;;;;;;;5041435;28;20667;-67
2023/04/13 12:07:24;;;;;;;12.05;1.27;;;;;;;;;;5042659;28;20193;-69
2023/04/13 12:09:50;;;;;;;7.50;1.55;;;;;;;;;;5048359;28;20178;-68
2023/04/13 12:12:21;;;;;;;5.57;1.30;;;;;;;;;;5033694;28;20588;-68
2023/04/13 12:14:54;;;;;;;6.47;1.80;;;;;;;;;;5038733;28;20194;-67
2023/04/13 12:17:19;;;;;;;8.38;1.30;;;;;;;;;;5032689;28;20218;-67
2023/04/13 12:19:49;;;;;;;9.40;1.65;;;;;;;;;;5038535;28;20226;-67
2023/04/13 12:22:14;;;;;;;7.15;1.55;;;;;;;;;;5028488;28;20182;-68
2023/04/13 12:24:40;;;;;;;10.25;2.20;;;;;;;;;;5043381;28;20178;-67
2023/04/13 12:27:05;;;;;;;12.15;2.60;;;;;;;;;;5036131;28;20216;-67
2023/04/13 12:29:37;;;;;;;9.35;1.55;;;;;;;;;;5036111;28;20497;-67
2023/04/13 12:32:02;;;;;;;6.18;1.17;;;;;;;;;;5038358;28;20209;-68
2023/04/13 12:34:28;;;;;;;5.63;1.08;;;;;;;;;;5039935;28;20209;-68
2023/04/13 12:36:53;;;;;;;5.57;1.15;;;;;;;;;;5038120;28;20684;-68
2023/04/13 12:39:19;;;;;;;9.32;1.48;;;;;;;;;;5042931;28;20228;-66
2023/04/13 12:41:44;;;;;;;4.55;1.45;;;;;;;;;;5040328;28;20665;-67
2023/04/13 12:44:10;;;;;;;6.47;1.67;;;;;;;;;;5040922;28;20304;-68
2023/04/13 12:46:35;;;;;;;7.30;1.10;;;;;;;;;;5038749;28;20233;-69
2023/04/13 12:49:01;;;;;;;8.30;1.00;;;;;;;;;;5037514;28;20193;-68
2023/04/13 12:51:27;;;;;;;7.13;1.50;;;;;;;;;;5029029;28;20222;-68
2023/04/13 12:53:52;;;;;;;8.73;1.40;;;;;;;;;;5033212;28;20560;-69
2023/04/13 12:56:18;;;;;;;5.50;1.23;;;;;;;;;;5041900;28;20204;-68
2023/04/13 12:58:43;;;;;;;7.20;1.23;;;;;;;;;;5035919;28;20194;-68
2023/04/13 13:01:09;;;;;;;5.93;1.50;;;;;;;;;;5043290;28;20217;-69
2023/04/13 13:03:35;;;;;;;10.25;1.48;;;;;;;;;;5042567;28;20189;-67
2023/04/13 13:06:04;;;;;;;9.32;1.40;;;;;;;;;;5042940;28;20693;-68
2023/04/13 13:08:29;;;;;;;8.95;1.70;;;;;;;;;;5043307;28;20554;-67
2023/04/13 13:10:54;;;;;;;4.65;1.45;;;;;;;;;;5043152;28;20327;-69
2023/04/13 13:13:20;;;;;;;9.38;1.27;;;;;;;;;;5044721;28;20189;-69
2023/04/13 13:15:45;;;;;;;8.93;1.52;;;;;;;;;;5041685;28;20674;-69
2023/04/13 13:18:11;;;;;;;8.20;1.42;;;;;;;;;;5040522;28;20572;-69
2023/04/13 13:20:40;;;;;;;9.45;1.83;;;;;;;;;;5038071;28;20185;-68
2023/04/13 13:23:09;;;;;;;13.48;1.80;;;;;;;;;;5039561;28;20193;-68
2023/04/13 13:25:35;;;;;;;6.82;2.00;;;;;;;;;;5037725;28;20389;-67
2023/04/13 13:28:06;;;;;;;10.27;1.65;;;;;;;;;;5044292;28;20714;-68
2023/04/13 13:30:33;;;;;;;9.40;2.00;;;;;;;;;;5040284;28;20264;-67
2023/04/13 13:32:58;;;;;;;6.80;1.88;;;;;;;;;;5043337;28;20632;-67
2023/04/13 13:35:23;;;;;;;8.63;1.70;;;;;;;;;;5039731;28;20198;-68
2023/04/13 13:37:49;;;;;;;8.73;1.65;;;;;;;;;;5043634;28;20633;-68
2023/04/13 13:40:14;;;;;;;5.35;1.45;;;;;;;;;;5038260;28;21198;-70
2023/04/13 13:42:40;;;;;;;9.65;2.35;;;;;;;;;;5038237;28;20197;-68
2023/04/13 13:45:06;;;;;;;11.77;2.00;;;;;;;;;;5039782;28;20469;-67
2023/04/13 13:47:31;;;;;;;8.02;1.52;;;;;;;;;;5041003;28;20280;-67
2023/04/13 13:49:57;;;;;;;9.93;1.85;;;;;;;;;;5039296;28;20650;-69
2023/04/13 13:52:22;;;;;;;8.60;1.70;;;;;;;;;;5040692;28;20661;-66
2023/04/13 13:54:48;;;;;;;7.85;1.38;;;;;;;;;;5041931;28;20197;-66
2023/04/13 13:57:15;;;;;;;9.45;1.27;;;;;;;;;;5041045;28;20185;-66
2023/04/13 13:59:40;;;;;;;7.43;1.10;;;;;;;;;;5040616;28;20204;-66
2023/04/13 14:02:06;;;;;;;10.38;1.48;;;;;;;;;;5041847;28;20198;-67
2023/04/13 14:04:31;;;;;;;8.15;1.30;;;;;;;;;;5039642;28;20189;-67
2023/04/13 14:06:57;;;;;;;9.15;1.88;;;;;;;;;;5043280;28;20524;-66
2023/04/13 14:09:22;;;;;;;8.20;1.50;;;;;;;;;;5041520;28;20221;-68
2023/04/13 14:11:49;;;;;;;8.80;1.50;;;;;;;;;;5037581;28;20220;-66
2023/04/13 14:14:15;;;;;;;7.47;1.40;;;;;;;;;;5044291;28;20209;-66
2023/04/13 14:16:40;;;;;;;9.00;1.70;;;;;;;;;;5039828;28;20258;-66
2023/04/13 14:19:05;;;;;;;10.35;2.13;;;;;;;;;;5042117;28;20618;-66
2023/04/13 14:21:31;;;;;;;9.75;1.80;;;;;;;;;;5045463;28;20197;-67
2023/04/13 14:23:56;;;;;;;6.63;1.20;;;;;;;;;;5045520;28;20210;-68
2023/04/13 14:26:22;;;;;;;5.32;1.25;;;;;;;;;;5046648;28;20193;-67
2023/04/13 14:28:48;;;;;;;5.97;1.30;;;;;;;;;;5045308;28;20732;-67
2023/04/13 14:31:14;;;;;;;9.43;1.13;;;;;;;;;;5042513;28;20217;-67
2023/04/13 14:33:43;;;;;;;9.55;1.50;;;;;;;;;;5036704;28;20273;-66
2023/04/13 14:36:13;;;;;;;8.57;1.30;;;;;;;;;;5043868;28;20225;-67
2023/04/13 14:38:39;;;;;;;7.05;1.35;;;;;;;;;;5044254;28;20272;-66
2023/04/13 14:41:04;;;;;;;8.23;1.38;;;;;;;;;;5043854;28;20776;-66